createdAt,value
2023-02-03T00:01:36.323Z,97960.41
2023-02-03T00:04:02.946Z,97953.88
2023-02-03T00:06:31.955Z,97948.81
2023-02-03T00:09:00.736Z,97951.41
2023-02-03T00:11:29.155Z,97953.69
2023-02-03T00:13:55.668Z,97958.53
2023-02-03T00:16:22.021Z,97959.09
2023-02-03T00:18:48.546Z,97959.34
2023-02-03T00:21:15.125Z,97954.03
2023-02-03T00:23:42.416Z,97950.88
2023-02-03T00:26:10.347Z,97959.81
2023-02-03T00:28:36.927Z,97959.81
2023-02-03T00:31:03.475Z,97953.44
2023-02-03T00:33:30.155Z,97965.91
2023-02-03T00:35:56.601Z,97969.69
2023-02-03T00:38:22.978Z,97968.91
2023-02-03T00:40:55.531Z,97974.50
2023-02-03T00:43:21.961Z,97982.34
2023-02-03T00:45:48.301Z,97972.53
2023-02-03T00:48:14.706Z,97974.81
2023-02-03T00:50:41.388Z,97992.22
2023-02-03T00:53:07.918Z,97996.91
2023-02-03T00:55:34.362Z,97991.50
2023-02-03T00:58:00.681Z,97987.69
2023-02-03T01:00:27.230Z,97986.00
2023-02-03T01:02:53.758Z,97989.47
2023-02-03T01:05:20.275Z,97993.84
2023-02-03T01:07:46.615Z,97993.00
2023-02-03T01:10:14.673Z,97992.34
2023-02-03T01:12:41.010Z,98005.72
2023-02-03T01:15:08.004Z,98003.28
2023-02-03T01:17:34.552Z,98004.09
2023-02-03T01:20:00.956Z,98003.13
2023-02-03T01:22:30.328Z,98014.16
2023-02-03T01:24:56.720Z,98017.91
2023-02-03T01:27:23.147Z,98008.19
2023-02-03T01:29:49.496Z,98005.88
2023-02-03T01:32:15.836Z,98011.38
2023-02-03T01:34:42.163Z,98019.88
2023-02-03T01:37:08.564Z,98025.44
2023-02-03T01:39:34.889Z,98032.09
2023-02-03T01:42:01.236Z,98026.28
2023-02-03T01:44:50.969Z,98026.53
2023-02-03T01:47:36.360Z,98027.19
2023-02-03T01:50:14.295Z,98016.34
2023-02-03T01:52:43.586Z,98005.16
2023-02-03T01:55:13.664Z,98006.78
2023-02-03T01:57:46.612Z,98005.31
2023-02-03T02:00:13.646Z,98009.38
2023-02-03T02:02:42.774Z,98016.38
2023-02-03T02:05:27.955Z,98021.50
2023-02-03T02:07:57.362Z,98022.91
2023-02-03T02:10:24.452Z,98022.38
2023-02-03T02:12:51.616Z,98026.25
2023-02-03T02:15:20.689Z,98015.88
2023-02-03T02:18:19.152Z,98006.41
2023-02-03T02:20:45.556Z,98004.81
2023-02-03T02:23:41.510Z,98020.94
2023-02-03T02:26:22.382Z,98023.00
2023-02-03T02:29:14.860Z,98014.06
2023-02-03T02:32:25.159Z,98012.84
2023-02-03T02:35:06.421Z,98006.81
2023-02-03T02:38:00.518Z,98003.22
2023-02-03T02:40:36.074Z,97978.44
2023-02-03T02:43:29.772Z,97967.06
2023-02-03T02:46:15.831Z,97956.25
2023-02-03T02:48:59.119Z,97958.66
2023-02-03T02:51:27.878Z,97964.03
2023-02-03T02:54:01.595Z,97965.66
2023-02-03T02:56:30.447Z,97978.31
2023-02-03T02:58:59.759Z,97972.03
2023-02-03T03:01:26.284Z,97973.56
2023-02-03T03:03:53.027Z,97961.38
2023-02-03T03:06:28.757Z,97960.75
2023-02-03T03:09:00.413Z,97963.25
2023-02-03T03:11:31.371Z,97971.19
2023-02-03T03:13:58.047Z,97978.50
2023-02-03T03:16:27.014Z,97980.09
2023-02-03T03:19:01.227Z,97971.69
2023-02-03T03:21:34.786Z,97978.31
2023-02-03T03:24:08.151Z,97985.72
2023-02-03T03:26:55.743Z,97972.28
2023-02-03T03:29:28.745Z,97976.75
2023-02-03T03:31:55.856Z,97974.50
2023-02-03T03:34:22.351Z,97956.13
2023-02-03T03:36:58.648Z,97943.59
2023-02-03T03:39:39.333Z,97935.50
2023-02-03T03:42:20.596Z,97926.63
2023-02-03T03:45:07.523Z,97929.22
2023-02-03T03:47:47.578Z,97951.97
2023-02-03T03:50:21.446Z,97960.81
2023-02-03T03:52:50.184Z,97947.94
2023-02-03T03:55:19.456Z,97940.53
2023-02-03T03:57:58.137Z,97943.91
2023-02-03T04:00:28.707Z,97954.41
2023-02-03T04:02:58.512Z,97940.53
2023-02-03T04:05:25.889Z,97945.84
2023-02-03T04:07:52.429Z,97945.72
2023-02-03T04:10:40.505Z,97939.75
2023-02-03T04:13:08.322Z,97931.25
2023-02-03T04:15:35.459Z,97913.16
2023-02-03T04:18:02.051Z,97912.25
2023-02-03T04:20:29.908Z,97918.44
2023-02-03T04:22:57.148Z,97904.69
2023-02-03T04:25:24.181Z,97917.50
2023-02-03T04:27:50.729Z,97932.09
2023-02-03T04:30:18.341Z,97940.13
2023-02-03T04:32:45.810Z,97933.78
2023-02-03T04:35:12.285Z,97917.34
2023-02-03T04:37:38.738Z,97920.53
2023-02-03T04:40:05.667Z,97909.88
2023-02-03T04:42:32.005Z,97917.28
2023-02-03T04:44:58.351Z,97921.25
2023-02-03T04:47:24.790Z,97920.59
2023-02-03T04:49:51.127Z,97924.88
2023-02-03T04:52:17.480Z,97936.13
2023-02-03T04:54:43.812Z,97954.88
2023-02-03T04:57:10.208Z,97966.00
2023-02-03T04:59:36.520Z,97973.13
2023-02-03T05:02:08.082Z,97957.16
2023-02-03T05:04:34.806Z,97963.88
2023-02-03T05:07:01.357Z,97968.00
2023-02-03T05:09:28.088Z,97972.47
2023-02-03T05:11:55.028Z,97963.59
2023-02-03T05:14:21.415Z,97977.28
2023-02-03T05:16:47.845Z,97971.25
2023-02-03T05:19:14.262Z,97981.00
2023-02-03T05:21:40.618Z,97984.94
2023-02-03T05:24:07.827Z,97979.28
2023-02-03T05:26:35.671Z,97961.72
2023-02-03T05:29:02.838Z,97976.50
2023-02-03T05:31:29.295Z,97959.41
2023-02-03T05:33:55.636Z,97964.63
2023-02-03T05:36:22.044Z,97967.16
2023-02-03T05:38:48.466Z,97978.47
2023-02-03T05:41:33.262Z,97978.06
2023-02-03T05:43:59.598Z,97986.31
2023-02-03T05:46:26.309Z,97994.81
2023-02-03T05:48:52.690Z,97999.28
2023-02-03T05:51:19.047Z,97999.75
2023-02-03T05:53:45.367Z,97998.91
2023-02-03T05:56:11.685Z,97999.09
2023-02-03T05:58:37.997Z,97987.28
2023-02-03T06:01:04.498Z,97987.63
2023-02-03T06:03:30.889Z,97969.03
2023-02-03T06:05:58.799Z,97948.25
2023-02-03T06:08:28.388Z,97951.72
2023-02-03T06:10:59.672Z,97953.50
2023-02-03T06:13:26.690Z,97941.00
2023-02-03T06:15:53.139Z,97948.78
2023-02-03T06:18:19.814Z,97945.72
2023-02-03T06:20:46.276Z,97936.22
2023-02-03T06:23:12.840Z,97948.97
2023-02-03T06:25:39.199Z,97957.28
2023-02-03T06:28:05.582Z,97973.13
2023-02-03T06:30:31.954Z,97983.50
2023-02-03T06:32:58.303Z,97978.19
2023-02-03T06:35:24.642Z,97978.38
2023-02-03T06:37:50.957Z,97979.47
2023-02-03T06:40:17.527Z,97987.94
2023-02-03T06:42:47.282Z,98000.16
2023-02-03T06:45:14.599Z,97988.66
2023-02-03T06:47:42.336Z,97995.34
2023-02-03T06:50:10.392Z,98001.59
2023-02-03T06:52:36.988Z,98007.22
2023-02-03T06:55:04.865Z,98010.88
2023-02-03T06:57:31.760Z,98008.81
2023-02-03T06:59:58.202Z,98014.59
2023-02-03T07:02:24.554Z,98011.31
2023-02-03T07:04:50.917Z,98025.50
2023-02-03T07:07:17.468Z,98033.41
2023-02-03T07:09:43.822Z,98040.41
2023-02-03T07:12:10.304Z,98036.84
2023-02-03T07:14:36.627Z,98020.84
2023-02-03T07:17:03.157Z,98021.84
2023-02-03T07:19:29.720Z,98025.59
2023-02-03T07:21:56.037Z,98042.34
2023-02-03T07:24:22.380Z,98042.78
2023-02-03T07:26:48.776Z,98040.56
2023-02-03T07:29:15.145Z,98041.06
2023-02-03T07:31:41.649Z,98037.63
2023-02-03T07:34:08.016Z,98039.97
2023-02-03T07:36:34.385Z,98031.66
2023-02-03T07:39:00.759Z,98015.47
2023-02-03T07:41:27.163Z,98002.47
2023-02-03T07:43:53.511Z,98006.13
2023-02-03T07:46:19.970Z,98002.38
2023-02-03T07:48:46.473Z,97999.19
2023-02-03T07:51:12.828Z,98007.09
2023-02-03T07:53:39.158Z,98012.94
2023-02-03T07:56:05.852Z,98022.94
2023-02-03T07:58:32.734Z,98022.84
2023-02-03T08:00:59.380Z,98015.16
2023-02-03T08:03:25.785Z,97991.09
2023-02-03T08:05:53.347Z,97977.91
2023-02-03T08:08:19.686Z,97984.84
2023-02-03T08:10:46.096Z,97983.16
2023-02-03T08:13:12.469Z,97985.00
2023-02-03T08:15:38.856Z,97996.88
2023-02-03T08:18:05.296Z,97991.03
2023-02-03T08:20:31.694Z,97995.19
2023-02-03T08:22:58.049Z,98007.78
2023-02-03T08:25:24.400Z,98010.91
2023-02-03T08:27:50.739Z,98009.09
2023-02-03T08:30:17.476Z,98023.16
2023-02-03T08:32:43.827Z,98007.28
2023-02-03T08:35:10.327Z,98003.28
2023-02-03T08:37:37.158Z,97990.28
2023-02-03T08:40:04.805Z,97999.03
2023-02-03T08:42:31.272Z,98005.34
2023-02-03T08:44:57.626Z,98022.44
2023-02-03T08:47:25.566Z,98007.63
2023-02-03T08:49:52.270Z,98004.09
2023-02-03T08:52:19.271Z,98019.88
2023-02-03T08:54:46.167Z,98020.28
2023-02-03T08:57:12.903Z,98031.09
2023-02-03T08:59:40.940Z,98042.09
2023-02-03T09:02:11.244Z,98030.81
2023-02-03T09:04:37.679Z,98029.88
2023-02-03T09:07:04.322Z,98014.91
2023-02-03T09:09:31.541Z,98013.91
2023-02-03T09:12:02.087Z,98026.63
2023-02-03T09:14:29.724Z,98024.34
2023-02-03T09:16:56.356Z,98016.66
2023-02-03T09:19:22.855Z,98024.19
2023-02-03T09:21:49.319Z,98025.63
2023-02-03T09:24:16.736Z,98024.69
2023-02-03T09:26:43.787Z,98017.81
2023-02-03T09:29:10.715Z,98019.84
2023-02-03T09:31:37.069Z,98017.28
2023-02-03T09:34:03.404Z,98003.84
2023-02-03T09:36:29.808Z,97992.66
2023-02-03T09:38:57.694Z,97985.88
2023-02-03T09:41:44.146Z,97989.28
2023-02-03T09:44:36.227Z,97988.50
2023-02-03T09:47:09.595Z,98005.47
2023-02-03T09:49:42.688Z,98004.47
2023-02-03T09:52:15.507Z,98002.06
2023-02-03T09:55:00.665Z,97990.97
2023-02-03T09:57:30.543Z,97993.63
2023-02-03T09:59:59.844Z,97999.97
2023-02-03T10:02:37.409Z,97997.00
2023-02-03T10:05:12.893Z,98007.63
2023-02-03T10:08:17.020Z,97998.81
2023-02-03T10:11:10.012Z,98002.94
2023-02-03T10:13:57.852Z,98013.84
2023-02-03T10:16:42.963Z,98022.28
2023-02-03T10:19:15.897Z,98027.16
2023-02-03T10:21:52.541Z,98010.28
2023-02-03T10:24:25.670Z,98007.06
2023-02-03T10:26:52.462Z,98021.66
2023-02-03T10:29:23.843Z,98009.03
2023-02-03T10:31:50.357Z,98004.97
2023-02-03T10:34:17.936Z,97999.31
2023-02-03T10:36:57.180Z,97992.63
2023-02-03T10:39:36.148Z,97985.56
2023-02-03T10:42:05.654Z,97995.22
2023-02-03T10:44:37.952Z,97995.75
2023-02-03T10:47:19.586Z,97985.63
2023-02-03T10:49:46.834Z,97992.16
2023-02-03T10:52:26.629Z,97997.03
2023-02-03T10:54:52.976Z,97995.50
2023-02-03T10:57:19.504Z,97988.22
2023-02-03T10:59:47.777Z,97975.19
2023-02-03T11:02:30.105Z,97980.25
2023-02-03T11:05:17.711Z,97992.91
2023-02-03T11:07:45.316Z,97972.69
2023-02-03T11:10:38.608Z,97953.59
2023-02-03T11:13:13.333Z,97955.44
2023-02-03T11:15:58.413Z,97944.16
2023-02-03T11:18:40.172Z,97945.16
2023-02-03T11:21:27.989Z,97946.47
2023-02-03T11:23:58.023Z,97947.53
2023-02-03T11:26:37.184Z,97939.19
2023-02-03T11:29:06.472Z,97943.25
2023-02-03T11:31:36.407Z,97931.44
2023-02-03T11:34:17.343Z,97929.75
2023-02-03T11:36:43.688Z,97958.34
2023-02-03T11:39:19.813Z,97955.13
2023-02-03T11:41:47.521Z,97954.13
2023-02-03T11:44:31.016Z,97952.44
2023-02-03T11:47:04.016Z,97953.81
2023-02-03T11:49:36.441Z,97946.06
2023-02-03T11:52:12.825Z,97948.25
2023-02-03T11:55:03.826Z,97948.41
2023-02-03T11:57:57.690Z,97939.13
2023-02-03T12:00:53.426Z,97932.94
2023-02-03T12:03:47.464Z,97921.25
2023-02-03T12:06:51.512Z,97904.03
2023-02-03T12:09:27.082Z,97918.81
2023-02-03T12:12:14.593Z,97928.44
2023-02-03T12:14:57.244Z,97939.22
2023-02-03T12:17:42.133Z,97937.84
2023-02-03T12:20:44.579Z,97925.38
2023-02-03T12:23:48.321Z,97914.97
2023-02-03T12:26:23.640Z,97928.22
2023-02-03T12:29:05.814Z,97911.78
2023-02-03T12:31:39.323Z,97921.38
2023-02-03T12:34:15.644Z,97906.22
2023-02-03T12:36:53.400Z,97899.91
2023-02-03T12:39:32.697Z,97882.34
2023-02-03T12:42:20.995Z,97881.44
2023-02-03T12:44:55.673Z,97867.47
2023-02-03T12:47:30.645Z,97874.97
2023-02-03T12:50:07.244Z,97879.03
2023-02-03T12:52:38.830Z,97877.00
2023-02-03T12:55:28.332Z,97865.72
2023-02-03T12:58:01.844Z,97874.22
2023-02-03T13:00:50.415Z,97875.84
2023-02-03T13:03:34.274Z,97862.88
2023-02-03T13:06:22.652Z,97866.56
2023-02-03T13:09:05.433Z,97859.50
2023-02-03T13:11:48.805Z,97870.88
2023-02-03T13:14:31.636Z,97843.34
2023-02-03T13:17:08.391Z,97842.19
2023-02-03T13:19:44.707Z,97854.59
2023-02-03T13:22:13.694Z,97840.91
2023-02-03T13:24:46.444Z,97840.97
2023-02-03T13:27:22.021Z,97832.09
2023-02-03T13:29:59.604Z,97810.50
2023-02-03T13:32:56.915Z,97825.72
2023-02-03T13:35:34.542Z,97824.53
2023-02-03T13:38:22.617Z,97817.44
2023-02-03T13:41:09.049Z,97825.72
2023-02-03T13:43:39.882Z,97836.13
2023-02-03T13:46:18.318Z,97819.16
2023-02-03T13:48:46.811Z,97819.25
2023-02-03T13:51:16.963Z,97811.75
2023-02-03T13:53:46.183Z,97809.38
2023-02-03T13:56:32.032Z,97824.19
2023-02-03T13:59:19.221Z,97830.44
2023-02-03T14:01:45.869Z,97819.66
2023-02-03T14:04:26.467Z,97822.72
2023-02-03T14:06:52.942Z,97830.78
2023-02-03T14:09:22.382Z,97845.56
2023-02-03T14:12:12.101Z,97857.88
2023-02-03T14:14:38.396Z,97859.38
2023-02-03T14:17:04.863Z,97851.06
2023-02-03T14:19:31.315Z,97849.44
2023-02-03T14:22:04.598Z,97859.28
2023-02-03T14:24:39.138Z,97873.00
2023-02-03T14:27:34.236Z,97857.41
2023-02-03T14:30:13.469Z,97865.31
2023-02-03T14:32:53.911Z,97856.72
2023-02-03T14:35:31.652Z,97858.16
2023-02-03T14:38:09.063Z,97847.25
2023-02-03T14:40:46.776Z,97850.09
2023-02-03T14:43:37.991Z,97874.81
2023-02-03T14:46:16.182Z,97885.91
2023-02-03T14:48:52.230Z,97890.13
2023-02-03T14:51:37.497Z,97892.91
2023-02-03T14:54:13.208Z,97865.00
2023-02-03T14:57:06.529Z,97885.69
2023-02-03T14:59:44.846Z,97874.88
2023-02-03T15:02:22.985Z,97882.44
2023-02-03T15:04:50.730Z,97887.53
2023-02-03T15:07:45.081Z,97896.03
2023-02-03T15:10:20.658Z,97877.53
2023-02-03T15:12:49.584Z,97887.69
2023-02-03T15:15:22.207Z,97864.47
2023-02-03T15:17:50.656Z,97860.72
2023-02-03T15:20:28.923Z,97858.59
2023-02-03T15:22:55.356Z,97859.66
2023-02-03T15:25:25.263Z,97858.69
2023-02-03T15:27:52.704Z,97868.69
2023-02-03T15:30:25.463Z,97866.22
2023-02-03T15:33:04.251Z,97858.16
2023-02-03T15:35:33.015Z,97850.00
2023-02-03T15:38:06.494Z,97863.88
2023-02-03T15:40:41.806Z,97866.16
2023-02-03T15:43:12.916Z,97855.59
2023-02-03T15:45:45.977Z,97849.16
2023-02-03T15:48:22.039Z,97843.25
2023-02-03T15:50:53.089Z,97867.81
2023-02-03T15:53:34.498Z,97885.72
2023-02-03T15:56:05.838Z,97911.19
2023-02-03T15:58:38.387Z,97905.59
2023-02-03T16:01:10.470Z,97904.00
2023-02-03T16:03:40.106Z,97918.63
2023-02-03T16:06:24.586Z,97935.28
2023-02-03T16:08:52.526Z,97929.91
2023-02-03T16:11:24.343Z,97937.09
2023-02-03T16:13:51.368Z,97934.94
2023-02-03T16:16:22.559Z,97934.28
2023-02-03T16:19:12.065Z,97925.66
2023-02-03T16:21:50.269Z,97922.53
2023-02-03T16:24:40.807Z,97925.44
2023-02-03T16:27:25.868Z,97901.56
2023-02-03T16:30:12.094Z,97897.50
2023-02-03T16:32:57.104Z,97910.50
2023-02-03T16:35:43.029Z,97907.66
2023-02-03T16:38:36.281Z,97900.31
2023-02-03T16:41:31.325Z,97889.25
2023-02-03T16:44:16.446Z,97901.34
2023-02-03T16:47:02.679Z,97901.69
2023-02-03T16:49:47.939Z,97911.38
2023-02-03T16:52:14.277Z,97914.28
2023-02-03T16:54:40.623Z,97912.19
2023-02-03T16:57:07.109Z,97916.03
2023-02-03T16:59:33.421Z,97922.69
2023-02-03T17:01:59.815Z,97912.13
2023-02-03T17:04:26.186Z,97905.69
2023-02-03T17:06:52.558Z,97909.22
2023-02-03T17:09:22.047Z,97901.72
2023-02-03T17:11:49.300Z,97887.00
2023-02-03T17:14:15.613Z,97895.41
2023-02-03T17:16:42.033Z,97899.03
2023-02-03T17:19:14.889Z,97906.38
2023-02-03T17:21:41.257Z,97912.31
2023-02-03T17:24:07.690Z,97913.66
2023-02-03T17:26:34.289Z,97919.94
2023-02-03T17:29:03.137Z,97905.00
2023-02-03T17:31:30.231Z,97890.19
2023-02-03T17:33:57.661Z,97900.31
2023-02-03T17:36:24.655Z,97909.34
2023-02-03T17:55:19.796Z,97910.22
2023-02-03T17:57:46.168Z,97915.50
2023-02-03T18:00:13.240Z,97919.03
2023-02-03T18:02:39.974Z,97916.50
2023-02-03T18:05:06.753Z,97938.25
2023-02-03T18:07:33.074Z,97938.13
2023-02-03T18:09:59.395Z,97946.59
2023-02-03T18:12:25.750Z,97946.25
2023-02-03T18:14:52.340Z,97940.41
2023-02-03T18:17:18.720Z,97937.34
2023-02-03T18:19:49.242Z,97918.88
2023-02-03T18:22:21.402Z,97922.31
2023-02-03T18:24:51.525Z,97918.09
2023-02-03T18:27:18.509Z,97922.41
2023-02-03T18:29:46.313Z,97935.75
2023-02-03T18:32:14.386Z,97918.28
2023-02-03T18:34:41.069Z,97924.25
2023-02-03T18:37:08.551Z,97910.00
2023-02-03T18:39:34.956Z,97913.34
2023-02-03T18:42:01.373Z,97909.31
2023-02-03T18:44:27.785Z,97890.75
2023-02-03T18:46:54.829Z,97897.25
2023-02-03T18:49:21.393Z,97896.81
2023-02-03T18:51:47.723Z,97906.53
2023-02-03T18:54:14.118Z,97895.75
2023-02-03T18:56:40.455Z,97899.69
2023-02-03T18:59:09.340Z,97909.97
2023-02-03T19:01:36.702Z,97907.09
2023-02-03T19:04:03.328Z,97914.13
2023-02-03T19:06:31.665Z,97924.53
2023-02-03T19:08:59.194Z,97933.75
2023-02-03T19:11:26.029Z,97940.63
2023-02-03T19:13:52.434Z,97947.84
2023-02-03T19:16:19.510Z,97938.94
2023-02-03T19:18:46.662Z,97934.44
2023-02-03T19:21:13.545Z,97936.75
2023-02-03T19:23:41.382Z,97943.41
2023-02-03T19:26:09.682Z,97938.78
2023-02-03T19:28:36.341Z,97949.22
2023-02-03T19:31:08.761Z,97948.38
2023-02-03T19:33:36.463Z,97948.31
2023-02-03T19:36:06.781Z,97968.59
2023-02-03T19:38:33.684Z,97948.31
2023-02-03T19:41:03.420Z,97944.91
2023-02-03T19:43:30.679Z,97952.81
2023-02-03T19:45:57.111Z,97955.34
2023-02-03T19:48:23.483Z,97949.91
2023-02-03T19:50:49.883Z,97946.47
2023-02-03T19:53:17.882Z,97938.94
2023-02-03T19:55:44.984Z,97942.19
2023-02-03T19:58:12.376Z,97932.50
2023-02-03T20:00:39.253Z,97914.50
2023-02-03T20:03:05.677Z,97913.41
2023-02-03T20:05:32.170Z,97919.78
2023-02-03T20:07:58.530Z,97928.22
2023-02-03T20:10:26.468Z,97935.06
2023-02-03T20:12:54.070Z,97937.78
2023-02-03T20:15:21.528Z,97926.53
2023-02-03T20:17:48.107Z,97929.75
2023-02-03T20:20:16.147Z,97942.63
2023-02-03T20:22:42.473Z,97931.34
2023-02-03T20:25:09.239Z,97930.94
2023-02-03T20:27:35.984Z,97936.34
2023-02-03T20:30:04.109Z,97938.94
2023-02-03T20:32:30.562Z,97934.19
2023-02-03T20:34:57.770Z,97941.56
2023-02-03T20:37:24.226Z,97947.28
2023-02-03T20:39:50.630Z,97944.84
2023-02-03T20:42:17.697Z,97940.34
2023-02-03T20:44:44.903Z,97927.31
2023-02-03T20:47:13.141Z,97932.34
2023-02-03T20:49:39.687Z,97925.75
2023-02-03T20:52:17.877Z,97922.38
2023-02-03T20:54:44.243Z,97947.22
2023-02-03T20:57:18.911Z,97950.47
2023-02-03T20:59:46.088Z,97941.56
2023-02-03T21:02:30.883Z,97954.50
2023-02-03T21:04:57.706Z,97953.34
2023-02-03T21:07:27.448Z,97968.69
2023-02-03T21:09:54.560Z,97962.09
2023-02-03T21:12:21.200Z,97952.91
2023-02-03T21:14:55.020Z,97960.56
2023-02-03T21:17:26.348Z,97954.06
2023-02-03T21:19:54.740Z,97953.19
2023-02-03T21:22:27.615Z,97942.47
2023-02-03T21:24:58.986Z,97941.84
2023-02-03T21:27:33.819Z,97962.34
2023-02-03T21:30:02.745Z,97965.31
2023-02-03T21:32:38.667Z,97973.50
2023-02-03T21:35:24.633Z,97956.03
2023-02-03T21:38:01.941Z,97956.97
2023-02-03T21:40:31.874Z,97946.00
2023-02-03T21:42:59.458Z,97945.94
2023-02-03T21:45:30.923Z,97950.69
2023-02-03T21:47:58.413Z,97945.06
2023-02-03T21:50:41.021Z,97957.50
2023-02-03T21:53:07.485Z,97960.25
2023-02-03T21:55:34.262Z,97957.94
2023-02-03T21:58:18.678Z,97953.06
2023-02-03T22:00:48.439Z,97954.13
2023-02-03T22:03:30.707Z,97954.28
2023-02-03T22:06:15.722Z,97958.56
2023-02-03T22:08:47.390Z,97955.09
2023-02-03T22:11:15.224Z,97955.34
2023-02-03T22:13:42.620Z,97962.25
2023-02-03T22:16:09.572Z,97956.50
2023-02-03T22:18:35.948Z,97970.22
2023-02-03T22:21:03.270Z,97970.69
2023-02-03T22:23:29.975Z,97976.97
2023-02-03T22:25:56.488Z,97970.66
2023-02-03T22:28:22.790Z,97973.25
2023-02-03T22:30:49.329Z,97968.69
2023-02-03T22:33:15.726Z,97967.47
2023-02-03T22:35:42.050Z,97980.81
2023-02-03T22:38:08.663Z,97975.13
2023-02-03T22:40:35.182Z,97984.94
2023-02-03T22:43:01.546Z,97982.41
2023-02-03T22:45:27.906Z,97986.03
2023-02-03T22:47:56.367Z,97988.41
2023-02-03T22:50:34.726Z,97987.22
2023-02-03T22:53:03.995Z,97991.75
2023-02-03T22:55:30.985Z,97983.47
2023-02-03T22:57:57.365Z,97984.56
2023-02-03T23:00:25.598Z,97994.31
2023-02-03T23:02:52.079Z,97998.28
2023-02-03T23:05:18.838Z,97999.34
2023-02-03T23:07:46.344Z,98000.56
2023-02-03T23:10:17.553Z,97986.78
2023-02-03T23:12:44.674Z,97985.41
2023-02-03T23:15:12.052Z,97982.19
2023-02-03T23:17:38.618Z,97982.72
2023-02-03T23:20:07.133Z,97976.34
2023-02-03T23:22:33.499Z,97980.94
2023-02-03T23:25:00.345Z,97979.00
2023-02-03T23:27:26.976Z,97979.16
2023-02-03T23:29:53.385Z,97978.66
2023-02-03T23:32:19.756Z,97977.19
2023-02-03T23:35:04.675Z,97977.03
2023-02-03T23:37:31.323Z,97976.19
2023-02-03T23:39:58.126Z,97985.25
2023-02-03T23:42:24.488Z,97975.28
2023-02-03T23:44:50.964Z,97979.25
2023-02-03T23:47:17.400Z,97975.13
2023-02-03T23:49:43.731Z,97973.66
2023-02-03T23:52:10.099Z,97976.75
2023-02-03T23:54:36.442Z,97979.72
2023-02-03T23:57:04.942Z,97979.81
2023-02-03T23:59:31.706Z,97978.78
